Time;durP1;ratioP1;P1;durP2;ratioP2;P2;SDS_P1;SDS_P2;PMS_P1;PMS_P2;Temp;Humidity;BMP_temperature;BMP_pressure;BME280_temperature;BME280_humidity;BME280_pressure;Samples;Min_cycle;Max_cycle;Signal;HPM_P1;HPM_P2
2022/12/18 00:02:01;;;;;;;138.10;69.37;;;-3.20;99.90;;;;;;5020503;28;20044;-76
2022/12/18 00:04:27;;;;;;;160.37;75.20;;;-3.20;99.90;;;;;;5038129;28;20044;-76
2022/12/18 00:06:56;;;;;;;162.60;74.33;;;-3.20;99.90;;;;;;5020824;28;20032;-74
2022/12/18 00:09:22;;;;;;;171.53;74.70;;;-3.20;99.90;;;;;;5004797;28;20045;-76
2022/12/18 00:11:48;;;;;;;177.23;75.87;;;-3.10;99.90;;;;;;5038922;28;20045;-74
2022/12/18 00:14:14;;;;;;;163.63;76.53;;;-3.20;99.90;;;;;;5022951;28;20208;-76
2022/12/18 00:16:43;;;;;;;171.80;76.37;;;-3.20;99.90;;;;;;5019929;28;20051;-76
2022/12/18 00:19:10;;;;;;;181.30;79.13;;;-3.20;99.90;;;;;;5038251;28;20403;-75
2022/12/18 00:21:45;;;;;;;188.53;81.80;;;-3.20;99.90;;;;;;5020864;28;20388;-75
2022/12/18 00:24:11;;;;;;;173.20;79.17;;;-3.20;99.90;;;;;;5040300;28;20033;-75
2022/12/18 00:26:39;;;;;;;191.53;81.00;;;-3.20;99.90;;;;;;5036912;28;20063;-76
2022/12/18 00:29:13;;;;;;;164.80;74.57;;;-3.20;99.90;;;;;;5040598;28;20041;-75
2022/12/18 00:31:39;;;;;;;161.20;74.90;;;-3.30;99.90;;;;;;5036876;28;20053;-76
2022/12/18 00:34:05;;;;;;;166.70;77.47;;;-3.30;99.90;;;;;;5037929;28;20079;-76
2022/12/18 00:36:33;;;;;;;159.30;74.87;;;-3.30;99.90;;;;;;5036676;28;20529;-75
2022/12/18 00:39:04;;;;;;;147.53;72.17;;;-3.30;99.90;;;;;;5036706;28;20049;-76
2022/12/18 00:44:16;;;;;;;149.50;71.57;;;-3.40;99.90;;;;;;5037412;28;20055;-76
2022/12/18 00:46:44;;;;;;;147.87;72.20;;;-3.40;99.90;;;;;;5013647;28;20052;-76
2022/12/18 00:49:13;;;;;;;158.23;74.37;;;-3.40;99.90;;;;;;5020669;28;20033;-76
2022/12/18 00:51:39;;;;;;;148.57;75.28;;;-3.40;99.90;;;;;;5018945;28;20044;-76
2022/12/18 00:54:05;;;;;;;147.83;71.17;;;-3.40;99.90;;;;;;5020697;28;20037;-76
2022/12/18 00:56:31;;;;;;;151.37;71.77;;;-3.40;99.90;;;;;;5036325;28;20052;-75
2022/12/18 00:58:57;;;;;;;169.97;75.17;;;-3.40;99.90;;;;;;5037927;28;20033;-75
2022/12/18 01:01:23;;;;;;;156.23;72.43;;;-3.50;99.90;;;;;;5023899;28;20048;-75
2022/12/18 01:03:49;;;;;;;147.73;70.97;;;-3.50;99.90;;;;;;5014737;28;20746;-76
2022/12/18 01:06:16;;;;;;;164.67;75.97;;;-3.50;99.90;;;;;;5004091;28;20124;-75
2022/12/18 01:08:42;;;;;;;145.50;71.93;;;-3.50;99.90;;;;;;5022490;28;20220;-69
2022/12/18 01:11:16;;;;;;;157.73;74.73;;;-3.50;99.90;;;;;;5021254;28;20044;-69
2022/12/18 01:13:42;;;;;;;145.73;72.30;;;-3.60;99.90;;;;;;5036434;28;20687;-69
2022/12/18 01:16:08;;;;;;;147.07;73.17;;;-3.60;99.90;;;;;;5004880;28;20076;-68
2022/12/18 01:18:35;;;;;;;145.67;70.93;;;-3.60;99.90;;;;;;5019495;28;20057;-69
2022/12/18 01:21:05;;;;;;;165.03;77.70;;;-3.60;99.90;;;;;;5021682;28;20052;-69
2022/12/18 01:23:30;;;;;;;163.85;77.60;;;-3.50;99.90;;;;;;5037464;28;20055;-69
2022/12/18 01:25:56;;;;;;;165.33;75.67;;;-3.60;99.90;;;;;;5020604;28;20033;-68
2022/12/18 01:28:22;;;;;;;161.20;75.97;;;-3.60;99.90;;;;;;5012640;28;20051;-69
2022/12/18 01:30:48;;;;;;;170.00;77.43;;;-3.60;99.90;;;;;;5037566;28;20044;-68
2022/12/18 01:33:13;;;;;;;158.50;77.00;;;-3.60;99.90;;;;;;5021024;28;20105;-69
2022/12/18 01:35:45;;;;;;;164.00;77.60;;;-3.60;99.90;;;;;;5020055;28;20400;-76
2022/12/18 01:38:11;;;;;;;174.63;81.47;;;-3.70;99.90;;;;;;5035956;28;20041;-76
2022/12/18 01:40:37;;;;;;;188.40;85.47;;;-3.70;99.90;;;;;;5016918;28;20044;-75
2022/12/18 01:43:03;;;;;;;167.60;78.70;;;-3.70;99.90;;;;;;5006817;28;20036;-76
2022/12/18 01:45:31;;;;;;;162.40;78.20;;;-3.80;99.90;;;;;;4998673;28;20037;-75
2022/12/18 01:48:05;;;;;;;145.23;75.57;;;-3.70;99.90;;;;;;5014154;28;20033;-76
2022/12/18 01:50:36;;;;;;;158.87;79.20;;;-3.70;99.90;;;;;;5013156;28;20127;-76
2022/12/18 01:53:18;;;;;;;173.87;84.00;;;-3.70;99.90;;;;;;5029909;28;20760;-75
2022/12/18 01:55:51;;;;;;;169.00;80.70;;;-3.70;99.90;;;;;;5032991;28;20040;-75
2022/12/18 01:58:19;;;;;;;161.07;78.57;;;-3.80;99.90;;;;;;5034916;28;20052;-76
2022/12/18 02:00:45;;;;;;;151.67;80.13;;;-3.80;99.90;;;;;;5004120;28;20526;-75
2022/12/18 02:03:11;;;;;;;152.53;79.80;;;-3.80;99.90;;;;;;5034232;28;20666;-75
2022/12/18 02:06:06;;;;;;;162.23;80.20;;;-3.80;99.90;;;;;;5017856;28;20116;-75
2022/12/18 02:08:53;;;;;;;148.70;79.23;;;-3.80;99.90;;;;;;5010165;28;20305;-75
2022/12/18 02:11:26;;;;;;;148.57;80.30;;;-3.80;99.90;;;;;;5031861;28;20406;-75
2022/12/18 02:14:16;;;;;;;145.33;78.17;;;-3.80;99.90;;;;;;5028591;28;20051;-75
2022/12/18 02:16:45;;;;;;;136.30;75.25;;;-3.90;99.90;;;;;;5032216;28;20386;-76
2022/12/18 02:19:42;;;;;;;140.20;75.17;;;-3.90;99.90;;;;;;5032274;28;20624;-76
2022/12/18 02:22:50;;;;;;;129.73;71.17;;;-3.90;99.90;;;;;;5033490;28;20141;-75
2022/12/18 02:25:35;;;;;;;125.37;72.77;;;-4.00;99.90;;;;;;5013611;28;20056;-75
2022/12/18 02:28:04;;;;;;;133.17;74.30;;;-4.00;99.90;;;;;;5021843;28;20056;-74
2022/12/18 02:30:34;;;;;;;135.07;73.57;;;-3.90;99.90;;;;;;5036401;28;20097;-75
2022/12/18 02:33:03;;;;;;;130.98;76.28;;;-4.10;99.90;;;;;;5021526;28;20518;-75
2022/12/18 02:35:30;;;;;;;134.00;73.03;;;-4.10;99.90;;;;;;5034563;28;20147;-76
2022/12/18 02:37:58;;;;;;;135.70;74.87;;;-4.20;99.90;;;;;;5020880;28;20072;-75
2022/12/18 02:40:28;;;;;;;124.67;69.90;;;-4.20;99.90;;;;;;5033023;28;20053;-75
2022/12/18 02:43:06;;;;;;;133.70;72.07;;;-4.30;99.90;;;;;;5005301;28;20518;-75
2022/12/18 02:45:32;;;;;;;130.90;72.23;;;-4.30;99.90;;;;;;5038218;28;20587;-74
2022/12/18 02:47:58;;;;;;;129.00;71.83;;;-4.30;99.90;;;;;;5034464;28;20037;-75
2022/12/18 02:50:40;;;;;;;136.83;72.27;;;-4.40;99.90;;;;;;5041226;28;20044;-75
2022/12/18 02:53:30;;;;;;;133.13;71.83;;;-4.30;99.90;;;;;;5016001;28;20114;-75
2022/12/18 02:56:19;;;;;;;140.88;76.78;;;-4.40;99.90;;;;;;5036581;28;20177;-75
2022/12/18 02:58:57;;;;;;;136.00;71.50;;;-4.40;99.90;;;;;;5021402;28;20064;-75
2022/12/18 03:01:42;;;;;;;135.43;74.00;;;-4.50;99.90;;;;;;5023770;28;20094;-76
2022/12/18 03:04:35;;;;;;;134.43;73.83;;;-4.50;99.90;;;;;;5040652;28;20097;-75
2022/12/18 03:07:05;;;;;;;129.87;69.67;;;-4.50;99.90;;;;;;5018725;28;20068;-76
2022/12/18 03:09:35;;;;;;;132.05;70.95;;;-4.50;99.90;;;;;;5039957;28;20048;-75
2022/12/18 03:12:27;;;;;;;134.23;71.05;;;-4.60;99.90;;;;;;5023955;28;20083;-69
2022/12/18 03:14:59;;;;;;;132.70;69.97;;;-4.60;99.90;;;;;;5014217;28;20056;-76
2022/12/18 03:17:28;;;;;;;130.77;70.80;;;-4.70;99.90;;;;;;5021897;28;20446;-75
2022/12/18 03:20:07;;;;;;;137.87;73.10;;;-4.70;99.90;;;;;;5042672;28;20166;-76
2022/12/18 03:22:35;;;;;;;131.47;72.03;;;-4.70;99.90;;;;;;5042028;28;20052;-76
2022/12/18 03:25:04;;;;;;;125.23;67.13;;;-4.70;99.90;;;;;;5014683;28;20497;-75
2022/12/18 03:27:32;;;;;;;133.17;69.77;;;-4.80;99.90;;;;;;5032308;28;20044;-75
2022/12/18 03:30:07;;;;;;;129.87;69.53;;;-4.80;99.90;;;;;;5023102;28;20041;-68
2022/12/18 03:33:03;;;;;;;123.47;66.90;;;-4.80;99.90;;;;;;5031513;28;20049;-68
2022/12/18 03:35:35;;;;;;;127.67;70.60;;;-4.80;99.90;;;;;;5030264;28;20040;-68
2022/12/18 03:38:01;;;;;;;131.93;69.40;;;-4.80;99.90;;;;;;5034324;28;20094;-68
2022/12/18 03:40:37;;;;;;;122.90;69.57;;;-4.90;99.90;;;;;;5012260;28;20045;-68
2022/12/18 03:43:15;;;;;;;129.23;70.33;;;-4.90;99.90;;;;;;5038613;28;20998;-68
2022/12/18 03:45:53;;;;;;;123.53;67.03;;;-4.90;99.90;;;;;;5046569;28;20052;-68
2022/12/18 03:48:48;;;;;;;125.30;68.10;;;-4.90;99.90;;;;;;5029732;28;20129;-76
2022/12/18 03:51:23;;;;;;;122.33;67.77;;;-5.00;99.90;;;;;;5032898;28;20069;-76
2022/12/18 03:54:03;;;;;;;128.43;68.90;;;-5.00;99.90;;;;;;5038405;28;20124;-68
2022/12/18 03:56:35;;;;;;;121.75;67.53;;;-5.00;99.90;;;;;;5018126;28;20044;-68
2022/12/18 03:59:03;;;;;;;121.93;66.67;;;-5.10;99.90;;;;;;5039118;28;20139;-68
2022/12/18 04:01:33;;;;;;;117.23;65.07;;;-5.10;99.90;;;;;;5041969;28;20045;-68
2022/12/18 04:04:04;;;;;;;123.83;69.10;;;-5.10;99.90;;;;;;5029092;28;20444;-68
2022/12/18 04:06:35;;;;;;;120.80;65.33;;;-5.10;99.90;;;;;;5012007;28;20080;-68
2022/12/18 04:09:01;;;;;;;117.23;64.67;;;-5.10;99.90;;;;;;5027489;28;20053;-68
2022/12/18 04:11:27;;;;;;;117.97;64.93;;;-5.10;99.90;;;;;;5045197;28;20048;-68
2022/12/18 04:13:57;;;;;;;106.07;62.10;;;-5.20;99.90;;;;;;5010348;28;20044;-68
2022/12/18 04:16:23;;;;;;;117.18;66.25;;;-5.20;99.90;;;;;;5032863;28;20052;-76
2022/12/18 04:18:49;;;;;;;117.93;63.43;;;-5.20;99.90;;;;;;5026987;28;20133;-75
2022/12/18 04:21:15;;;;;;;111.17;64.17;;;-5.20;99.90;;;;;;5034612;28;20048;-76
2022/12/18 04:23:43;;;;;;;100.43;60.90;;;-5.20;99.90;;;;;;5007449;28;20049;-75
2022/12/18 04:26:09;;;;;;;110.73;62.10;;;-5.20;99.90;;;;;;5024759;28;20162;-76
2022/12/18 04:28:35;;;;;;;111.27;62.23;;;-5.20;99.90;;;;;;5045207;28;20127;-75
2022/12/18 04:31:00;;;;;;;105.90;61.47;;;-5.20;99.90;;;;;;5009981;28;20048;-76
2022/12/18 04:33:26;;;;;;;99.93;57.23;;;-5.30;99.90;;;;;;5045617;28;20083;-75
2022/12/18 04:35:52;;;;;;;99.63;58.87;;;-5.20;99.90;;;;;;5023763;28;20095;-76
2022/12/18 04:38:20;;;;;;;93.87;57.70;;;-5.30;99.90;;;;;;5021319;28;20056;-75
2022/12/18 04:40:46;;;;;;;95.87;57.80;;;-5.20;99.90;;;;;;5012155;28;20110;-74
2022/12/18 04:43:12;;;;;;;98.77;59.13;;;-5.20;99.90;;;;;;5042362;28;20044;-75
2022/12/18 04:45:38;;;;;;;95.23;56.83;;;-5.30;99.90;;;;;;5030006;28;20042;-75
2022/12/18 04:48:04;;;;;;;95.77;58.87;;;-5.30;99.90;;;;;;5009399;28;20052;-75
2022/12/18 04:50:30;;;;;;;93.17;57.50;;;-5.30;99.90;;;;;;5040757;28;20076;-75
2022/12/18 04:52:57;;;;;;;87.83;55.93;;;-5.30;99.90;;;;;;5027111;28;20094;-75
2022/12/18 04:55:23;;;;;;;92.53;56.23;;;-5.30;99.90;;;;;;5036346;28;20047;-75
2022/12/18 04:57:49;;;;;;;81.40;52.70;;;-5.30;99.90;;;;;;5039216;28;20040;-76
2022/12/18 05:00:15;;;;;;;81.40;52.17;;;-5.30;99.90;;;;;;5034902;28;20056;-75
2022/12/18 05:02:41;;;;;;;82.27;52.70;;;-5.30;99.90;;;;;;5031357;28;20045;-68
2022/12/18 05:05:07;;;;;;;83.33;51.67;;;-5.30;99.90;;;;;;5013426;28;20359;-68
2022/12/18 05:07:33;;;;;;;81.33;51.50;;;-5.30;99.90;;;;;;5026975;28;20418;-68
2022/12/18 05:09:59;;;;;;;76.00;49.73;;;-5.30;99.90;;;;;;5027992;28;20082;-68
2022/12/18 05:12:24;;;;;;;76.13;49.50;;;-5.30;99.90;;;;;;5021798;28;20049;-68
2022/12/18 05:14:50;;;;;;;81.13;49.83;;;-5.30;99.90;;;;;;5030273;28;20495;-68
2022/12/18 05:17:16;;;;;;;72.03;48.93;;;-5.40;99.90;;;;;;5033985;28;20197;-75
2022/12/18 05:19:42;;;;;;;82.77;51.70;;;-5.40;99.90;;;;;;5043462;28;20044;-76
2022/12/18 05:22:08;;;;;;;72.13;48.27;;;-5.40;99.90;;;;;;4985521;28;20044;-76
2022/12/18 05:24:34;;;;;;;69.53;46.87;;;-5.40;99.90;;;;;;5025674;28;20043;-76
2022/12/18 05:27:00;;;;;;;72.47;47.57;;;-5.40;99.90;;;;;;5020080;28;20148;-75
2022/12/18 05:29:26;;;;;;;72.07;48.10;;;-5.40;99.90;;;;;;5044599;28;20437;-76
2022/12/18 05:31:51;;;;;;;72.93;48.87;;;-5.40;99.90;;;;;;5042100;28;20110;-75
2022/12/18 05:34:17;;;;;;;73.07;48.20;;;-5.40;99.90;;;;;;5024326;28;20122;-75
2022/12/18 05:36:43;;;;;;;69.03;45.83;;;-5.40;99.90;;;;;;5046123;28;20047;-68
2022/12/18 05:39:09;;;;;;;65.80;44.33;;;-5.40;99.90;;;;;;5027997;28;20044;-68
2022/12/18 05:41:34;;;;;;;66.40;44.67;;;-5.40;99.90;;;;;;5034737;28;20045;-68
2022/12/18 05:44:00;;;;;;;67.60;46.60;;;-5.40;99.90;;;;;;5028693;28;20101;-76
2022/12/18 05:46:26;;;;;;;69.00;48.03;;;-5.40;99.90;;;;;;5032944;28;20089;-76
2022/12/18 05:48:52;;;;;;;68.97;47.37;;;-5.40;99.90;;;;;;5041232;28;20078;-76
2022/12/18 05:51:20;;;;;;;67.50;46.97;;;-5.40;99.90;;;;;;5048165;28;20044;-76
2022/12/18 05:53:46;;;;;;;66.03;45.13;;;-5.40;99.90;;;;;;5034753;28;20048;-76
2022/12/18 05:56:15;;;;;;;59.80;43.07;;;-5.50;99.90;;;;;;5027676;28;20070;-75
2022/12/18 05:58:41;;;;;;;62.93;44.63;;;-5.50;99.90;;;;;;5040804;28;20135;-76
2022/12/18 06:01:23;;;;;;;62.43;43.73;;;-5.50;99.90;;;;;;5029335;28;20123;-76
2022/12/18 06:03:49;;;;;;;61.77;42.83;;;-5.50;99.90;;;;;;5021412;28;20036;-76
2022/12/18 06:06:27;;;;;;;60.87;43.90;;;-5.50;99.90;;;;;;5030296;28;20483;-75
2022/12/18 06:08:54;;;;;;;58.07;43.63;;;-5.50;99.90;;;;;;5016952;28;20048;-76
2022/12/18 06:11:22;;;;;;;63.70;43.67;;;-5.50;99.90;;;;;;5050093;28;20119;-76
2022/12/18 06:13:56;;;;;;;63.23;43.37;;;-5.50;99.90;;;;;;5018415;28;20045;-76
2022/12/18 06:16:21;;;;;;;63.83;43.90;;;-5.50;99.90;;;;;;5007681;28;20044;-76
2022/12/18 06:18:47;;;;;;;60.03;42.17;;;-5.50;99.90;;;;;;4990395;28;20463;-68
2022/12/18 06:21:13;;;;;;;61.30;43.37;;;-5.50;99.90;;;;;;5010772;28;20037;-76
2022/12/18 06:23:39;;;;;;;56.07;39.90;;;-5.50;99.90;;;;;;5012562;28;20045;-76
2022/12/18 06:26:09;;;;;;;53.60;40.40;;;-5.50;99.90;;;;;;5027965;28;20462;-68
2022/12/18 06:28:37;;;;;;;54.57;39.37;;;-5.50;99.90;;;;;;5037304;28;20095;-68
2022/12/18 06:31:04;;;;;;;56.27;41.03;;;-5.60;99.90;;;;;;5030938;28;20064;-67
2022/12/18 06:33:30;;;;;;;58.37;42.40;;;-5.60;99.90;;;;;;5030745;28;20122;-75
2022/12/18 06:36:11;;;;;;;55.80;39.87;;;-5.60;99.90;;;;;;5040409;28;20471;-76
2022/12/18 06:38:41;;;;;;;55.63;39.93;;;-5.60;99.90;;;;;;5021290;28;20364;-68
2022/12/18 06:41:15;;;;;;;57.53;39.15;;;-5.60;99.90;;;;;;5036530;28;20048;-68
2022/12/18 06:43:41;;;;;;;56.90;40.40;;;-5.60;99.90;;;;;;5032409;28;21079;-68
2022/12/18 06:46:08;;;;;;;53.83;39.70;;;-5.70;99.90;;;;;;5040278;28;20052;-67
2022/12/18 06:48:34;;;;;;;54.10;39.10;;;-5.70;99.90;;;;;;5019282;28;20036;-68
2022/12/18 06:51:00;;;;;;;50.40;37.57;;;-5.80;99.90;;;;;;5031771;28;20559;-67
2022/12/18 06:53:26;;;;;;;51.27;38.73;;;-5.70;99.90;;;;;;5025550;28;20176;-67
2022/12/18 06:55:52;;;;;;;53.13;39.33;;;-5.70;99.90;;;;;;5015275;28;20070;-75
2022/12/18 06:58:18;;;;;;;53.07;39.07;;;-5.70;99.90;;;;;;5031121;28;20041;-75
2022/12/18 07:00:44;;;;;;;53.07;38.33;;;-5.70;99.90;;;;;;5028776;28;20163;-76
2022/12/18 07:03:10;;;;;;;53.53;40.10;;;-5.70;99.90;;;;;;5048202;28;20056;-75
2022/12/18 07:05:40;;;;;;;52.90;38.67;;;-5.70;99.90;;;;;;5022849;28;20128;-67
2022/12/18 07:08:06;;;;;;;54.60;41.28;;;-5.70;99.90;;;;;;5039958;28;20055;-75
2022/12/18 07:10:32;;;;;;;63.27;42.53;;;-5.80;99.90;;;;;;5013145;28;20049;-75
2022/12/18 07:12:57;;;;;;;58.33;42.00;;;-5.80;99.90;;;;;;5021282;28;20517;-67
2022/12/18 07:15:24;;;;;;;58.77;41.47;;;-5.90;99.90;;;;;;5026758;28;20111;-67
2022/12/18 07:17:49;;;;;;;44.17;21.20;;;-5.90;99.90;;;;;;5027939;28;20479;-76
2022/12/18 07:20:15;;;;;;;59.00;40.53;;;-6.00;99.90;;;;;;5038706;28;20041;-76
2022/12/18 07:22:41;;;;;;;58.50;41.03;;;-6.00;99.90;;;;;;5003002;28;20561;-75
2022/12/18 07:25:08;;;;;;;58.50;41.27;;;-6.00;99.90;;;;;;5049308;28;20139;-76
2022/12/18 07:27:34;;;;;;;56.27;39.87;;;-6.10;99.90;;;;;;5027016;28;20052;-76
2022/12/18 07:29:59;;;;;;;54.80;40.07;;;-6.10;99.90;;;;;;5031195;28;20040;-76
2022/12/18 07:32:25;;;;;;;56.13;41.13;;;-6.10;99.90;;;;;;5027046;28;20379;-76
2022/12/18 07:34:51;;;;;;;54.00;39.57;;;-6.10;99.90;;;;;;5038020;28;20055;-75
2022/12/18 07:37:17;;;;;;;53.13;41.17;;;-6.10;99.90;;;;;;5019000;28;20054;-75
2022/12/18 07:39:42;;;;;;;55.40;40.43;;;-6.20;99.90;;;;;;5036509;28;20072;-75
2022/12/18 07:44:53;;;;;;;54.93;39.30;;;-6.10;99.90;;;;;;5036866;28;20399;-75
2022/12/18 07:47:19;;;;;;;49.80;37.37;;;-6.10;99.90;;;;;;5012027;28;20043;-76
2022/12/18 07:49:48;;;;;;;51.47;38.03;;;-6.10;99.90;;;;;;5038657;28;20044;-68
2022/12/18 07:52:14;;;;;;;50.90;37.10;;;-6.10;99.90;;;;;;5022505;28;20570;-67
2022/12/18 07:54:40;;;;;;;53.60;39.77;;;-6.00;99.90;;;;;;5004256;28;20071;-68
2022/12/18 07:57:06;;;;;;;50.03;37.93;;;-6.00;99.90;;;;;;5013440;28;20037;-76
2022/12/18 07:59:32;;;;;;;50.73;37.53;;;-6.00;99.90;;;;;;5038113;28;20205;-68
2022/12/18 08:01:58;;;;;;;48.87;36.00;;;-6.00;99.90;;;;;;5039187;28;20581;-68
2022/12/18 08:04:24;;;;;;;49.57;36.30;;;-5.90;99.90;;;;;;5035403;28;20051;-68
2022/12/18 08:06:50;;;;;;;51.83;38.37;;;-6.00;99.90;;;;;;5029171;28;20040;-75
2022/12/18 08:09:16;;;;;;;48.43;36.03;;;-5.90;99.90;;;;;;5044399;28;20495;-75
2022/12/18 08:11:42;;;;;;;47.10;36.70;;;-5.90;99.90;;;;;;5030578;28;20516;-76
2022/12/18 08:14:08;;;;;;;50.70;38.27;;;-5.90;99.90;;;;;;5029643;28;20056;-76
2022/12/18 08:16:34;;;;;;;48.33;35.93;;;-5.90;99.90;;;;;;5042287;28;20052;-68
2022/12/18 08:19:00;;;;;;;47.70;37.33;;;-5.80;99.90;;;;;;5013804;28;20131;-75
2022/12/18 08:21:28;;;;;;;45.80;36.73;;;-5.90;99.90;;;;;;5021739;28;20201;-75
2022/12/18 08:23:56;;;;;;;48.37;36.97;;;-5.80;99.90;;;;;;5000912;28;20106;-76
2022/12/18 08:26:25;;;;;;;48.57;35.27;;;-5.80;99.90;;;;;;5026560;28;20044;-75
2022/12/18 08:28:51;;;;;;;47.00;36.93;;;-5.80;99.90;;;;;;5039950;28;20040;-76
2022/12/18 08:31:18;;;;;;;46.43;34.97;;;-5.70;99.90;;;;;;5033215;28;20487;-77
2022/12/18 08:33:44;;;;;;;45.30;34.77;;;-5.70;99.90;;;;;;5041126;28;20446;-68
2022/12/18 08:36:10;;;;;;;44.13;34.47;;;-5.60;99.90;;;;;;5030532;28;20052;-68
2022/12/18 08:38:35;;;;;;;42.90;33.23;;;-5.60;99.90;;;;;;5020988;28;20055;-68
2022/12/18 08:41:10;;;;;;;40.00;33.23;;;-5.50;99.90;;;;;;5011452;28;20048;-68
2022/12/18 08:46:22;;;;;;;40.83;32.90;;;-5.40;99.90;;;;;;5044594;28;20123;-68
2022/12/18 08:48:50;;;;;;;39.63;32.07;;;-5.40;99.90;;;;;;5020181;28;20079;-68
2022/12/18 08:51:17;;;;;;;39.77;31.77;;;-5.30;99.90;;;;;;5033297;28;20563;-68
2022/12/18 08:53:44;;;;;;;41.57;32.27;;;-5.20;99.90;;;;;;5025562;28;20115;-76
2022/12/18 08:56:10;;;;;;;36.00;30.87;;;-5.20;99.90;;;;;;5007109;28;20505;-77
2022/12/18 08:58:36;;;;;;;39.37;31.10;;;-5.20;99.90;;;;;;5020207;28;20407;-77
2022/12/18 09:01:11;;;;;;;37.33;30.80;;;-5.10;99.90;;;;;;5032590;28;20219;-76
2022/12/18 09:03:37;;;;;;;36.83;30.20;;;-5.10;99.90;;;;;;5035517;28;20460;-68
2022/12/18 09:06:03;;;;;;;36.83;31.53;;;-5.00;99.90;;;;;;5014810;28;20110;-69
2022/12/18 09:08:29;;;;;;;38.13;31.33;;;-5.00;99.90;;;;;;5021429;28;20147;-68
2022/12/18 09:10:55;;;;;;;35.83;30.93;;;-4.90;99.90;;;;;;5038163;28;20045;-69
2022/12/18 09:13:22;;;;;;;38.57;29.97;;;-4.90;99.90;;;;;;5034526;28;20047;-69
2022/12/18 09:15:55;;;;;;;33.63;28.57;;;-4.80;99.90;;;;;;5015228;28;20049;-68
2022/12/18 09:18:26;;;;;;;34.17;28.27;;;-4.70;99.90;;;;;;5045159;28;20693;-68
2022/12/18 09:20:52;;;;;;;34.80;28.13;;;-4.70;99.90;;;;;;5029836;28;20063;-68
2022/12/18 09:23:18;;;;;;;32.50;27.13;;;-4.60;99.90;;;;;;4997959;28;20045;-68
2022/12/18 09:25:44;;;;;;;31.20;26.50;;;-4.60;99.90;;;;;;5039019;28;20044;-68
2022/12/18 09:28:13;;;;;;;29.60;26.13;;;-4.50;99.90;;;;;;5011187;28;20080;-68
2022/12/18 09:30:44;;;;;;;31.93;26.50;;;-4.50;99.90;;;;;;5030615;28;20072;-68
2022/12/18 09:33:10;;;;;;;29.93;25.27;;;-4.40;99.90;;;;;;5011287;28;20053;-69
2022/12/18 09:35:38;;;;;;;32.00;26.13;;;-4.30;99.90;;;;;;5028877;28;20843;-70
2022/12/18 09:38:04;;;;;;;28.07;23.60;;;-4.20;99.90;;;;;;5046435;28;20117;-68
2022/12/18 09:40:41;;;;;;;29.50;23.73;;;-4.10;99.90;;;;;;5028244;28;20048;-69
2022/12/18 09:43:10;;;;;;;29.50;24.70;;;-4.10;99.90;;;;;;5031980;28;20049;-69
2022/12/18 09:45:44;;;;;;;27.63;23.30;;;-4.00;99.90;;;;;;5019934;28;20064;-69
2022/12/18 09:48:28;;;;;;;27.47;23.10;;;-3.90;99.90;;;;;;5025522;28;20670;-68
2022/12/18 09:50:59;;;;;;;28.07;24.00;;;-3.70;99.90;;;;;;5038036;28;20041;-69
2022/12/18 09:53:30;;;;;;;28.77;23.93;;;-3.60;99.90;;;;;;5029566;28;20059;-69
2022/12/18 09:55:57;;;;;;;27.30;22.90;;;-3.60;99.90;;;;;;5040487;28;20056;-69
2022/12/18 09:58:41;;;;;;;24.73;21.60;;;-3.50;99.90;;;;;;5032601;28;20036;-69
2022/12/18 10:01:14;;;;;;;23.30;20.80;;;-3.40;99.90;;;;;;5033574;28;20447;-68
2022/12/18 10:03:40;;;;;;;25.03;21.13;;;-3.40;99.90;;;;;;5029060;28;20098;-69
2022/12/18 10:06:18;;;;;;;23.17;20.20;;;-3.30;99.90;;;;;;5035774;28;20041;-69
2022/12/18 10:09:12;;;;;;;23.10;20.03;;;-3.20;99.90;;;;;;5029589;28;20076;-77
2022/12/18 10:11:56;;;;;;;21.60;19.13;;;-3.20;99.90;;;;;;5031172;28;20053;-78
2022/12/18 10:14:34;;;;;;;20.40;18.17;;;-3.10;99.90;;;;;;5028098;28;20123;-77
2022/12/18 10:17:09;;;;;;;21.77;18.10;;;-3.00;99.90;;;;;;5038963;28;20135;-78
2022/12/18 10:19:37;;;;;;;20.43;17.93;;;-2.90;99.90;;;;;;5019150;28;20036;-77
2022/12/18 10:22:10;;;;;;;18.50;16.50;;;-2.80;99.90;;;;;;5017619;28;20052;-77
2022/12/18 10:25:13;;;;;;;18.13;16.23;;;-2.80;99.90;;;;;;5041731;28;20041;-77
2022/12/18 10:27:40;;;;;;;17.90;15.77;;;-2.80;99.90;;;;;;5036422;28;20482;-77
2022/12/18 10:30:22;;;;;;;18.77;15.40;;;-2.80;99.90;;;;;;5018839;28;20052;-77
2022/12/18 10:32:48;;;;;;;17.30;15.00;;;-2.80;99.90;;;;;;5040174;28;20568;-77
2022/12/18 10:35:20;;;;;;;17.03;15.03;;;-2.80;99.90;;;;;;5024698;28;20040;-77
2022/12/18 10:38:05;;;;;;;16.17;14.47;;;-2.80;99.90;;;;;;5043300;28;20053;-76
2022/12/18 10:40:32;;;;;;;16.37;14.17;;;-2.70;99.90;;;;;;5020456;28;20053;-77
2022/12/18 10:43:14;;;;;;;17.17;14.63;;;-2.70;99.90;;;;;;5037263;28;20263;-76
2022/12/18 10:45:40;;;;;;;18.07;13.90;;;-2.60;99.90;;;;;;5039412;28;20152;-76
2022/12/18 10:48:23;;;;;;;16.27;14.40;;;-2.50;99.90;;;;;;5033582;28;20131;-76
2022/12/18 10:50:51;;;;;;;16.53;13.20;;;-2.40;99.90;;;;;;5030260;28;20102;-76
2022/12/18 10:53:28;;;;;;;15.07;12.03;;;-2.40;99.90;;;;;;5023282;28;20120;-76
2022/12/18 10:56:01;;;;;;;14.40;12.10;;;-2.40;99.90;;;;;;5039450;28;20051;-77
2022/12/18 10:58:38;;;;;;;12.60;11.27;;;-2.30;99.90;;;;;;5032411;28;20044;-76
2022/12/18 11:01:07;;;;;;;15.67;11.60;;;-2.20;99.90;;;;;;5037511;28;20091;-77
2022/12/18 11:03:38;;;;;;;14.87;11.40;;;-2.20;99.90;;;;;;5023286;28;20131;-77
2022/12/18 11:06:15;;;;;;;13.70;10.50;;;-2.20;99.90;;;;;;5033807;28;20040;-77
2022/12/18 11:08:42;;;;;;;11.53;10.27;;;-2.10;99.90;;;;;;5039174;28;20071;-78
2022/12/18 11:11:29;;;;;;;12.70;10.07;;;-2.10;99.90;;;;;;5022815;28;20110;-77
2022/12/18 11:13:59;;;;;;;11.53;9.93;;;-2.10;99.90;;;;;;5019448;28;20111;-76
2022/12/18 11:16:26;;;;;;;12.48;10.65;;;-2.00;99.90;;;;;;5016828;28;20101;-77
2022/12/18 11:18:52;;;;;;;10.43;9.30;;;-2.00;99.90;;;;;;5034413;28;20085;-69
2022/12/18 11:21:17;;;;;;;11.93;10.30;;;-2.00;99.90;;;;;;5014661;28;20041;-70
2022/12/18 11:23:54;;;;;;;11.73;9.70;;;-1.90;99.90;;;;;;5011621;28;20052;-69
2022/12/18 11:26:21;;;;;;;10.43;8.77;;;-1.80;99.90;;;;;;5013456;28;20102;-69
2022/12/18 11:28:51;;;;;;;11.83;9.83;;;-1.70;99.90;;;;;;5029154;28;20098;-69
2022/12/18 11:31:27;;;;;;;11.23;9.27;;;-1.70;99.90;;;;;;5021752;28;20044;-70
2022/12/18 11:34:05;;;;;;;11.20;8.67;;;-1.70;99.90;;;;;;5046949;28;20294;-70
2022/12/18 11:36:38;;;;;;;9.93;8.60;;;-1.60;99.90;;;;;;5028975;28;20086;-70
2022/12/18 11:39:19;;;;;;;10.87;9.27;;;-1.60;99.90;;;;;;5038146;28;20063;-69
2022/12/18 11:42:11;;;;;;;10.60;8.87;;;-1.60;99.90;;;;;;5020686;28;20056;-70
2022/12/18 11:44:46;;;;;;;10.13;9.00;;;-1.50;99.90;;;;;;5033958;28;20045;-69
2022/12/18 11:47:12;;;;;;;10.73;8.87;;;-1.50;99.90;;;;;;5020158;28;20053;-70
2022/12/18 11:49:41;;;;;;;11.07;8.70;;;-1.40;99.90;;;;;;5017086;28;20060;-70
2022/12/18 11:52:15;;;;;;;10.83;8.20;;;-1.40;99.90;;;;;;5033811;28;20059;-78
2022/12/18 11:54:41;;;;;;;11.47;8.93;;;-1.40;99.90;;;;;;5049667;28;20486;-77
2022/12/18 11:57:29;;;;;;;10.17;8.53;;;-1.40;99.90;;;;;;5038060;28;20092;-77
2022/12/18 12:00:03;;;;;;;9.80;7.67;;;-1.30;99.90;;;;;;5022795;28;20044;-77
2022/12/18 12:02:41;;;;;;;10.90;8.60;;;-1.30;99.90;;;;;;5038684;28;20056;-69
2022/12/18 12:05:47;;;;;;;10.20;8.17;;;-1.30;99.90;;;;;;5021281;28;20044;-69
2022/12/18 12:08:48;;;;;;;10.23;8.10;;;-1.20;99.90;;;;;;5013973;28;20091;-70
2022/12/18 12:11:17;;;;;;;10.40;8.60;;;-1.20;99.90;;;;;;4945309;28;20054;-70
2022/12/18 12:14:06;;;;;;;10.83;8.23;;;-1.10;99.90;;;;;;5022609;28;20045;-70
2022/12/18 12:16:50;;;;;;;10.63;8.20;;;-1.10;99.90;;;;;;5021669;28;20053;-77
2022/12/18 12:19:50;;;;;;;10.80;8.40;;;-1.00;99.90;;;;;;5036529;28;20711;-78
2022/12/18 12:22:28;;;;;;;10.30;8.10;;;-1.00;99.90;;;;;;4941194;28;20420;-76
2022/12/18 12:25:20;;;;;;;10.00;8.17;;;-1.00;99.90;;;;;;4958808;28;20305;-77
2022/12/18 12:28:05;;;;;;;9.47;7.97;;;-1.00;99.90;;;;;;5032863;28;20095;-78
2022/12/18 12:31:03;;;;;;;10.30;7.73;;;-0.90;99.90;;;;;;5039018;28;20049;-78
2022/12/18 12:33:41;;;;;;;11.30;9.10;;;-0.90;99.90;;;;;;5021323;28;20080;-78
2022/12/18 12:36:39;;;;;;;10.20;7.63;;;-0.90;99.90;;;;;;5033638;28;20541;-78
2022/12/18 12:39:17;;;;;;;12.97;8.77;;;-0.80;99.90;;;;;;5034637;28;20049;-78
2022/12/18 12:44:46;;;;;;;10.77;8.37;;;-0.80;99.90;;;;;;5045585;28;20385;-77
2022/12/18 12:47:18;;;;;;;11.63;8.13;;;-0.70;99.90;;;;;;5034664;28;20064;-78
2022/12/18 12:49:47;;;;;;;10.57;8.40;;;-0.70;99.90;;;;;;5034973;28;20482;-77
2022/12/18 12:52:28;;;;;;;11.60;8.37;;;-0.70;99.90;;;;;;5031544;28;20040;-77
2022/12/18 12:54:55;;;;;;;10.17;7.90;;;-0.60;99.90;;;;;;5028339;28;20049;-77
2022/12/18 12:57:33;;;;;;;10.40;8.30;;;-0.60;99.90;;;;;;5024073;28;20052;-69